sensor_id;sensor_type;location;lat;lon;timestamp;pressure;altitude;pressure_sealevel;temperature;humidity
42105;BME280;70664;51.472;5.712;2024-01-25T00:01:19;102600.22;;;16.76;61.23
42105;BME280;70664;51.472;5.712;2024-01-25T00:03:45;102614.94;;;16.74;61.37
42105;BME280;70664;51.472;5.712;2024-01-25T00:06:11;102622.69;;;16.71;61.62
42105;BME280;70664;51.472;5.712;2024-01-25T00:08:37;102625.31;;;16.71;61.72
42105;BME280;70664;51.472;5.712;2024-01-25T00:11:03;102617.50;;;16.71;61.58
42105;BME280;70664;51.472;5.712;2024-01-25T00:13:30;102626.16;;;16.69;61.54
42105;BME280;70664;51.472;5.712;2024-01-25T00:15:56;102633.06;;;16.67;61.36
42105;BME280;70664;51.472;5.712;2024-01-25T00:18:22;102631.31;;;16.64;61.42
42105;BME280;70664;51.472;5.712;2024-01-25T00:20:48;102627.00;;;16.66;61.56
42105;BME280;70664;51.472;5.712;2024-01-25T00:23:14;102630.44;;;16.63;61.40
42105;BME280;70664;51.472;5.712;2024-01-25T00:25:39;102634.75;;;16.61;61.59
42105;BME280;70664;51.472;5.712;2024-01-25T00:28:05;102644.25;;;16.61;61.54
42105;BME280;70664;51.472;5.712;2024-01-25T00:30:31;102639.06;;;16.59;61.42
42105;BME280;70664;51.472;5.712;2024-01-25T00:32:57;102624.34;;;16.57;61.64
42105;BME280;70664;51.472;5.712;2024-01-25T00:35:24;102633.84;;;16.55;61.59
42105;BME280;70664;51.472;5.712;2024-01-25T00:37:51;102634.72;;;16.55;61.35
42105;BME280;70664;51.472;5.712;2024-01-25T00:40:17;102637.31;;;16.54;61.31
42105;BME280;70664;51.472;5.712;2024-01-25T00:42:50;102631.22;;;16.53;61.54
42105;BME280;70664;51.472;5.712;2024-01-25T00:45:25;102625.16;;;16.51;61.57
42105;BME280;70664;51.472;5.712;2024-01-25T00:47:51;102628.63;;;16.50;61.56
42105;BME280;70664;51.472;5.712;2024-01-25T00:50:17;102631.22;;;16.48;61.61
42105;BME280;70664;51.472;5.712;2024-01-25T00:52:45;102632.06;;;16.47;61.45
42105;BME280;70664;51.472;5.712;2024-01-25T00:55:12;102627.72;;;16.46;61.55
42105;BME280;70664;51.472;5.712;2024-01-25T00:57:38;102637.25;;;16.43;61.37
42105;BME280;70664;51.472;5.712;2024-01-25T01:00:05;102632.03;;;16.43;61.59
42105;BME280;70664;51.472;5.712;2024-01-25T01:02:36;102633.75;;;16.42;61.52
42105;BME280;70664;51.472;5.712;2024-01-25T01:05:06;102632.03;;;16.40;61.52
42105;BME280;70664;51.472;5.712;2024-01-25T01:07:32;102628.53;;;16.39;61.23
42105;BME280;70664;51.472;5.712;2024-01-25T01:09:58;102634.59;;;16.38;61.30
42105;BME280;70664;51.472;5.712;2024-01-25T01:12:23;102641.53;;;16.38;61.52
42105;BME280;70664;51.472;5.712;2024-01-25T01:14:49;102634.59;;;16.37;61.42
42105;BME280;70664;51.472;5.712;2024-01-25T01:17:15;102628.50;;;16.35;61.28
42105;BME280;70664;51.472;5.712;2024-01-25T01:19:41;102634.56;;;16.33;61.48
42105;BME280;70664;51.472;5.712;2024-01-25T01:22:07;102640.59;;;16.32;61.45
42105;BME280;70664;51.472;5.712;2024-01-25T01:24:32;102643.19;;;16.32;61.35
42105;BME280;70664;51.472;5.712;2024-01-25T01:26:58;102651.84;;;16.33;61.49
42105;BME280;70664;51.472;5.712;2024-01-25T01:29:24;102652.69;;;16.30;61.29
42105;BME280;70664;51.472;5.712;2024-01-25T01:31:50;102652.69;;;16.30;61.47
42105;BME280;70664;51.472;5.712;2024-01-25T01:34:16;102651.81;;;16.28;61.55
42105;BME280;70664;51.472;5.712;2024-01-25T01:36:44;102651.81;;;16.28;61.36
42105;BME280;70664;51.472;5.712;2024-01-25T01:39:10;102651.81;;;16.27;61.19
42105;BME280;70664;51.472;5.712;2024-01-25T01:41:36;102658.72;;;16.26;61.33
42105;BME280;70664;51.472;5.712;2024-01-25T01:44:02;102659.56;;;16.25;61.51
42105;BME280;70664;51.472;5.712;2024-01-25T01:48:59;102669.06;;;16.23;61.28
42105;BME280;70664;51.472;5.712;2024-01-25T01:51:25;102676.81;;;16.20;61.54
42105;BME280;70664;51.472;5.712;2024-01-25T01:53:55;102678.56;;;16.20;61.50
42105;BME280;70664;51.472;5.712;2024-01-25T01:56:23;102683.75;;;16.20;61.21
42105;BME280;70664;51.472;5.712;2024-01-25T01:58:49;102687.19;;;16.18;61.11
42105;BME280;70664;51.472;5.712;2024-01-25T02:01:17;102684.56;;;16.17;61.55
42105;BME280;70664;51.472;5.712;2024-01-25T02:03:43;102684.56;;;16.17;61.49
42105;BME280;70664;51.472;5.712;2024-01-25T02:06:10;102694.09;;;16.15;61.51
42105;BME280;70664;51.472;5.712;2024-01-25T02:08:36;102698.41;;;16.14;61.37
42105;BME280;70664;51.472;5.712;2024-01-25T02:11:02;102700.16;;;16.14;61.38
42105;BME280;70664;51.472;5.712;2024-01-25T02:13:28;102706.19;;;16.14;61.69
42105;BME280;70664;51.472;5.712;2024-01-25T02:15:54;102708.78;;;16.13;61.50
42105;BME280;70664;51.472;5.712;2024-01-25T02:18:20;102714.81;;;16.13;61.40
42105;BME280;70664;51.472;5.712;2024-01-25T02:20:45;102712.22;;;16.12;61.41
42105;BME280;70664;51.472;5.712;2024-01-25T02:23:11;102722.56;;;16.10;61.61
42105;BME280;70664;51.472;5.712;2024-01-25T02:25:37;102719.13;;;16.10;61.41
42105;BME280;70664;51.472;5.712;2024-01-25T02:28:03;102717.38;;;16.09;61.28
42105;BME280;70664;51.472;5.712;2024-01-25T02:30:29;102718.25;;;16.08;61.42
42105;BME280;70664;51.472;5.712;2024-01-25T02:32:55;102722.53;;;16.07;61.45
42105;BME280;70664;51.472;5.712;2024-01-25T02:35:21;102722.53;;;16.07;61.40
42105;BME280;70664;51.472;5.712;2024-01-25T02:37:47;102722.53;;;16.06;61.55
42105;BME280;70664;51.472;5.712;2024-01-25T02:40:13;102721.69;;;16.07;61.29
42105;BME280;70664;51.472;5.712;2024-01-25T02:42:39;102724.25;;;16.03;61.47
42105;BME280;70664;51.472;5.712;2024-01-25T02:45:05;102712.97;;;16.03;61.54
42105;BME280;70664;51.472;5.712;2024-01-25T02:47:31;102707.78;;;16.01;61.55
42105;BME280;70664;51.472;5.712;2024-01-25T02:49:56;102711.28;;;16.02;61.49
42105;BME280;70664;51.472;5.712;2024-01-25T02:52:22;102711.22;;;15.99;61.48
42105;BME280;70664;51.472;5.712;2024-01-25T02:54:48;102716.41;;;15.99;61.64
42105;BME280;70664;51.472;5.712;2024-01-25T02:57:14;102705.16;;;15.98;61.40
42105;BME280;70664;51.472;5.712;2024-01-25T02:59:40;102704.28;;;15.96;61.48
42105;BME280;70664;51.472;5.712;2024-01-25T03:02:06;102706.88;;;15.96;61.52
42105;BME280;70664;51.472;5.712;2024-01-25T03:04:32;102708.59;;;15.96;61.33
42105;BME280;70664;51.472;5.712;2024-01-25T03:06:57;102700.78;;;15.94;61.32
42105;BME280;70664;51.472;5.712;2024-01-25T03:09:23;102705.13;;;15.94;61.19
42105;BME280;70664;51.472;5.712;2024-01-25T03:11:49;102716.34;;;15.93;61.63
42105;BME280;70664;51.472;5.712;2024-01-25T03:14:15;102717.19;;;15.92;61.46
42105;BME280;70664;51.472;5.712;2024-01-25T03:16:41;102714.59;;;15.92;61.40
42105;BME280;70664;51.472;5.712;2024-01-25T03:19:07;102715.47;;;15.92;61.54
42105;BME280;70664;51.472;5.712;2024-01-25T03:21:33;102725.84;;;15.91;61.36
42105;BME280;70664;51.472;5.712;2024-01-25T03:23:58;102725.84;;;15.89;61.19
42105;BME280;70664;51.472;5.712;2024-01-25T03:26:27;102723.22;;;15.89;61.58
42105;BME280;70664;51.472;5.712;2024-01-25T03:28:56;102723.19;;;15.86;61.60
42105;BME280;70664;51.472;5.712;2024-01-25T03:31:22;102723.19;;;15.86;61.28
42105;BME280;70664;51.472;5.712;2024-01-25T03:33:47;102731.84;;;15.86;61.33
42105;BME280;70664;51.472;5.712;2024-01-25T03:36:14;102726.59;;;15.85;61.30
42105;BME280;70664;51.472;5.712;2024-01-25T03:38:43;102735.25;;;15.85;61.24
42105;BME280;70664;51.472;5.712;2024-01-25T03:41:09;102725.72;;;15.83;61.45
42105;BME280;70664;51.472;5.712;2024-01-25T03:43:41;102721.38;;;15.82;61.29
42105;BME280;70664;51.472;5.712;2024-01-25T03:46:07;102734.34;;;15.82;61.29
42105;BME280;70664;51.472;5.712;2024-01-25T03:48:33;102735.22;;;15.81;61.33
42105;BME280;70664;51.472;5.712;2024-01-25T03:50:59;102733.41;;;15.78;61.31
42105;BME280;70664;51.472;5.712;2024-01-25T03:53:25;102731.69;;;15.77;61.53
42105;BME280;70664;51.472;5.712;2024-01-25T03:55:50;102737.75;;;15.78;61.60
42105;BME280;70664;51.472;5.712;2024-01-25T03:58:17;102736.88;;;15.77;61.62
42105;BME280;70664;51.472;5.712;2024-01-25T04:00:46;102738.59;;;15.75;61.38
42105;BME280;70664;51.472;5.712;2024-01-25T04:03:12;102740.31;;;15.75;61.64
42105;BME280;70664;51.472;5.712;2024-01-25T04:05:38;102737.72;;;15.76;61.51
42105;BME280;70664;51.472;5.712;2024-01-25T04:08:05;102732.53;;;15.73;61.52
42105;BME280;70664;51.472;5.712;2024-01-25T04:10:32;102727.31;;;15.71;61.38
42105;BME280;70664;51.472;5.712;2024-01-25T04:13:00;102735.97;;;15.73;61.23
42105;BME280;70664;51.472;5.712;2024-01-25T04:15:27;102738.56;;;15.72;61.61
42105;BME280;70664;51.472;5.712;2024-01-25T04:17:59;102738.53;;;15.70;61.27
42105;BME280;70664;51.472;5.712;2024-01-25T04:20:25;102742.00;;;15.71;61.35
42105;BME280;70664;51.472;5.712;2024-01-25T04:22:51;102736.78;;;15.69;61.37
42105;BME280;70664;51.472;5.712;2024-01-25T04:25:17;102743.66;;;15.67;61.64
42105;BME280;70664;51.472;5.712;2024-01-25T04:27:42;102739.38;;;15.68;61.22
42105;BME280;70664;51.472;5.712;2024-01-25T04:30:08;102745.41;;;15.67;61.23
42105;BME280;70664;51.472;5.712;2024-01-25T04:32:35;102741.06;;;15.67;61.69
42105;BME280;70664;51.472;5.712;2024-01-25T04:35:01;102737.63;;;15.67;61.09
42105;BME280;70664;51.472;5.712;2024-01-25T04:37:27;102731.56;;;15.65;61.64
42105;BME280;70664;51.472;5.712;2024-01-25T04:39:52;102720.28;;;15.63;61.23
42105;BME280;70664;51.472;5.712;2024-01-25T04:42:18;102735.00;;;15.64;61.57
42105;BME280;70664;51.472;5.712;2024-01-25T04:44:44;102735.00;;;15.64;61.53
42105;BME280;70664;51.472;5.712;2024-01-25T04:47:10;102721.13;;;15.62;61.37
42105;BME280;70664;51.472;5.712;2024-01-25T04:49:36;102729.75;;;15.61;61.44
42105;BME280;70664;51.472;5.712;2024-01-25T04:52:02;102730.63;;;15.60;61.06
42105;BME280;70664;51.472;5.712;2024-01-25T04:54:28;102733.22;;;15.60;61.73
42105;BME280;70664;51.472;5.712;2024-01-25T04:56:54;102732.34;;;15.61;61.06
42105;BME280;70664;51.472;5.712;2024-01-25T04:59:20;102720.25;;;15.60;61.40
42105;BME280;70664;51.472;5.712;2024-01-25T05:01:46;102709.84;;;15.56;61.40
42105;BME280;70664;51.472;5.712;2024-01-25T05:04:12;102713.31;;;15.57;61.40
42105;BME280;70664;51.472;5.712;2024-01-25T05:06:38;102718.44;;;15.54;61.27
42105;BME280;70664;51.472;5.712;2024-01-25T05:09:03;102719.31;;;15.53;61.29
42105;BME280;70664;51.472;5.712;2024-01-25T05:11:29;102718.41;;;15.52;61.18
42105;BME280;70664;51.472;5.712;2024-01-25T05:13:55;102723.59;;;15.52;61.49
42105;BME280;70664;51.472;5.712;2024-01-25T05:16:21;102720.13;;;15.49;61.37
42105;BME280;70664;51.472;5.712;2024-01-25T05:18:46;102720.13;;;15.49;61.40
42105;BME280;70664;51.472;5.712;2024-01-25T05:21:12;102714.03;;;15.48;61.32
42105;BME280;70664;51.472;5.712;2024-01-25T05:23:38;102717.53;;;15.50;61.12
42105;BME280;70664;51.472;5.712;2024-01-25T05:26:05;102713.19;;;15.49;61.02
42105;BME280;70664;51.472;5.712;2024-01-25T05:28:31;102716.66;;;15.50;61.21
42105;BME280;70664;51.472;5.712;2024-01-25T05:30:57;102708.84;;;15.48;61.24
42105;BME280;70664;51.472;5.712;2024-01-25T05:33:23;102714.03;;;15.48;61.29
42105;BME280;70664;51.472;5.712;2024-01-25T05:35:49;102717.50;;;15.47;61.12
42105;BME280;70664;51.472;5.712;2024-01-25T05:38:15;102717.47;;;15.44;61.46
42105;BME280;70664;51.472;5.712;2024-01-25T05:40:42;102716.56;;;15.42;61.64
42105;BME280;70664;51.472;5.712;2024-01-25T05:43:08;102726.09;;;15.45;61.39
42105;BME280;70664;51.472;5.712;2024-01-25T05:45:33;102723.50;;;15.45;61.24
42105;BME280;70664;51.472;5.712;2024-01-25T05:47:59;102723.47;;;15.41;61.46
42105;BME280;70664;51.472;5.712;2024-01-25T05:50:25;102735.53;;;15.39;61.47
42105;BME280;70664;51.472;5.712;2024-01-25T05:52:51;102740.72;;;15.39;61.27
42105;BME280;70664;51.472;5.712;2024-01-25T05:55:16;102742.41;;;15.37;61.06
42105;BME280;70664;51.472;5.712;2024-01-25T05:57:43;102748.44;;;15.36;61.74
42105;BME280;70664;51.472;5.712;2024-01-25T06:00:13;102746.75;;;15.37;61.31
42105;BME280;70664;51.472;5.712;2024-01-25T06:02:40;102745.84;;;15.35;61.58
42105;BME280;70664;51.472;5.712;2024-01-25T06:05:06;102751.03;;;15.36;61.37
42105;BME280;70664;51.472;5.712;2024-01-25T06:07:31;102753.66;;;15.38;61.35
42105;BME280;70664;51.472;5.712;2024-01-25T06:09:57;102757.06;;;15.34;61.26
42105;BME280;70664;51.472;5.712;2024-01-25T06:12:23;102747.59;;;15.36;61.03
42105;BME280;70664;51.472;5.712;2024-01-25T06:14:49;102747.53;;;15.31;61.59
42105;BME280;70664;51.472;5.712;2024-01-25T06:17:14;102752.72;;;15.31;61.31
42105;BME280;70664;51.472;5.712;2024-01-25T06:19:40;102753.56;;;15.30;61.54
42105;BME280;70664;51.472;5.712;2024-01-25T06:22:06;102758.75;;;15.30;61.63
42105;BME280;70664;51.472;5.712;2024-01-25T06:24:32;102757.00;;;15.29;61.38
42105;BME280;70664;51.472;5.712;2024-01-25T06:26:57;102752.66;;;15.28;61.32
42105;BME280;70664;51.472;5.712;2024-01-25T06:29:23;102755.25;;;15.28;61.09
42105;BME280;70664;51.472;5.712;2024-01-25T06:31:49;102756.13;;;15.27;61.43
42105;BME280;70664;51.472;5.712;2024-01-25T06:34:15;102758.66;;;15.25;61.28
42105;BME280;70664;51.472;5.712;2024-01-25T06:36:41;102763.84;;;15.24;61.29
42105;BME280;70664;51.472;5.712;2024-01-25T06:39:06;102767.28;;;15.24;61.73
42105;BME280;70664;51.472;5.712;2024-01-25T06:41:32;102773.31;;;15.22;61.48
42105;BME280;70664;51.472;5.712;2024-01-25T06:43:59;102785.38;;;15.20;61.33
42105;BME280;70664;51.472;5.712;2024-01-25T06:46:25;102786.22;;;15.20;61.34
42105;BME280;70664;51.472;5.712;2024-01-25T06:48:52;102781.91;;;15.19;61.27
42105;BME280;70664;51.472;5.712;2024-01-25T06:51:17;102780.19;;;15.20;61.11
42105;BME280;70664;51.472;5.712;2024-01-25T06:53:43;102775.00;;;15.20;61.27
42105;BME280;70664;51.472;5.712;2024-01-25T06:56:09;102779.28;;;15.16;61.63
42105;BME280;70664;51.472;5.712;2024-01-25T06:58:35;102772.34;;;15.17;61.14
42105;BME280;70664;51.472;5.712;2024-01-25T07:01:01;102769.75;;;15.17;61.58
42105;BME280;70664;51.472;5.712;2024-01-25T07:03:27;102772.34;;;15.15;61.28
42105;BME280;70664;51.472;5.712;2024-01-25T07:05:53;102779.28;;;15.16;60.91
42105;BME280;70664;51.472;5.712;2024-01-25T07:08:19;102770.66;;;15.19;60.96
42105;BME280;70664;51.472;5.712;2024-01-25T07:10:45;102771.50;;;15.16;61.08
42105;BME280;70664;51.472;5.712;2024-01-25T07:13:11;102779.28;;;15.16;61.19
42105;BME280;70664;51.472;5.712;2024-01-25T07:15:37;102776.63;;;15.13;61.00
42105;BME280;70664;51.472;5.712;2024-01-25T07:18:02;102769.66;;;15.10;61.22
42105;BME280;70664;51.472;5.712;2024-01-25T07:20:29;102755.88;;;15.11;61.08
42105;BME280;70664;51.472;5.712;2024-01-25T07:22:55;102762.84;;;15.16;61.06
42105;BME280;70664;51.472;5.712;2024-01-25T07:25:20;102761.16;;;15.18;60.93
42105;BME280;70664;51.472;5.712;2024-01-25T07:27:47;102762.75;;;15.09;61.29
42105;BME280;70664;51.472;5.712;2024-01-25T07:30:15;102767.06;;;15.09;61.52
42105;BME280;70664;51.472;5.712;2024-01-25T07:32:41;102767.97;;;15.12;61.48
42105;BME280;70664;51.472;5.712;2024-01-25T07:35:08;102776.63;;;15.13;61.22
42105;BME280;70664;51.472;5.712;2024-01-25T07:37:38;102780.03;;;15.09;61.64
42105;BME280;70664;51.472;5.712;2024-01-25T07:40:06;102777.53;;;15.15;60.93
42105;BME280;70664;51.472;5.712;2024-01-25T07:42:32;102782.63;;;15.10;61.24
42105;BME280;70664;51.472;5.712;2024-01-25T07:44:58;102793.06;;;15.15;61.31
42105;BME280;70664;51.472;5.712;2024-01-25T07:47:24;102801.75;;;15.17;61.40
42105;BME280;70664;51.472;5.712;2024-01-25T07:49:49;102795.63;;;15.12;61.63
42105;BME280;70664;51.472;5.712;2024-01-25T07:52:15;102794.72;;;15.11;61.52
42105;BME280;70664;51.472;5.712;2024-01-25T07:54:41;102798.16;;;15.09;61.64
42105;BME280;70664;51.472;5.712;2024-01-25T07:57:07;102794.72;;;15.11;61.41
42105;BME280;70664;51.472;5.712;2024-01-25T07:59:33;102798.94;;;15.05;61.85
42105;BME280;70664;51.472;5.712;2024-01-25T08:01:58;102805.88;;;15.07;61.42
42105;BME280;70664;51.472;5.712;2024-01-25T08:04:24;102802.38;;;15.02;62.22
42105;BME280;70664;51.472;5.712;2024-01-25T08:06:52;102802.31;;;15.01;62.15
42105;BME280;70664;51.472;5.712;2024-01-25T08:09:18;102793.69;;;15.00;62.16
42105;BME280;70664;51.472;5.712;2024-01-25T08:11:44;102796.34;;;15.03;62.00
42105;BME280;70664;51.472;5.712;2024-01-25T08:14:10;102802.38;;;15.04;61.98
42105;BME280;70664;51.472;5.712;2024-01-25T08:16:37;102802.38;;;15.02;62.15
42105;BME280;70664;51.472;5.712;2024-01-25T08:19:03;102812.72;;;15.02;62.13
42105;BME280;70664;51.472;5.712;2024-01-25T08:21:30;102810.22;;;15.07;61.59
42105;BME280;70664;51.472;5.712;2024-01-25T08:23:56;102810.22;;;15.07;61.46
42105;BME280;70664;51.472;5.712;2024-01-25T08:26:22;102802.38;;;15.04;61.55
42105;BME280;70664;51.472;5.712;2024-01-25T08:28:47;102794.63;;;15.04;61.61
42105;BME280;70664;51.472;5.712;2024-01-25T08:31:13;102792.84;;;15.01;61.50
42105;BME280;70664;51.472;5.712;2024-01-25T08:33:39;102795.44;;;15.01;61.94
42105;BME280;70664;51.472;5.712;2024-01-25T08:36:10;102804.00;;;14.97;61.87
42105;BME280;70664;51.472;5.712;2024-01-25T08:38:36;102809.25;;;15.00;61.70
42105;BME280;70664;51.472;5.712;2024-01-25T08:41:02;102813.59;;;15.03;61.85
42105;BME280;70664;51.472;5.712;2024-01-25T08:43:28;102804.84;;;14.96;62.09
42105;BME280;70664;51.472;5.712;2024-01-25T08:45:54;102785.94;;;15.02;61.80
42105;BME280;70664;51.472;5.712;2024-01-25T08:48:20;102769.56;;;15.03;61.63
42105;BME280;70664;51.472;5.712;2024-01-25T08:50:46;102776.44;;;15.01;61.51
42105;BME280;70664;51.472;5.712;2024-01-25T08:53:12;102786.78;;;14.99;61.76
42105;BME280;70664;51.472;5.712;2024-01-25T08:55:38;102791.97;;;15.01;62.08
42105;BME280;70664;51.472;5.712;2024-01-25T08:58:04;102804.03;;;14.98;61.88
42105;BME280;70664;51.472;5.712;2024-01-25T09:00:30;102810.94;;;15.00;61.80
42105;BME280;70664;51.472;5.712;2024-01-25T09:02:55;102834.25;;;14.98;62.03
42105;BME280;70664;51.472;5.712;2024-01-25T09:05:21;102829.00;;;14.95;62.34
42105;BME280;70664;51.472;5.712;2024-01-25T09:07:47;102836.84;;;14.98;62.16
42105;BME280;70664;51.472;5.712;2024-01-25T09:10:13;102831.63;;;14.96;62.25
42105;BME280;70664;51.472;5.712;2024-01-25T09:12:40;102836.78;;;14.96;62.20
42105;BME280;70664;51.472;5.712;2024-01-25T09:15:07;102836.84;;;14.98;62.06
42105;BME280;70664;51.472;5.712;2024-01-25T09:17:34;102838.53;;;14.96;62.09
42105;BME280;70664;51.472;5.712;2024-01-25T09:19:59;102846.25;;;14.93;62.00
42105;BME280;70664;51.472;5.712;2024-01-25T09:22:25;102835.91;;;14.94;62.14
42105;BME280;70664;51.472;5.712;2024-01-25T09:24:52;102821.19;;;14.93;62.01
42105;BME280;70664;51.472;5.712;2024-01-25T09:27:18;102809.09;;;14.91;62.30
42105;BME280;70664;51.472;5.712;2024-01-25T09:29:44;102798.78;;;14.95;62.07
42105;BME280;70664;51.472;5.712;2024-01-25T09:32:09;102809.09;;;14.92;62.13
42105;BME280;70664;51.472;5.712;2024-01-25T09:34:37;102797.66;;;14.79;60.96
42105;BME280;70664;51.472;5.712;2024-01-25T09:37:04;102809.03;;;14.88;61.84
42105;BME280;70664;51.472;5.712;2024-01-25T09:39:31;102813.41;;;14.90;61.78
42105;BME280;70664;51.472;5.712;2024-01-25T09:41:57;102816.00;;;14.90;61.80
42105;BME280;70664;51.472;5.712;2024-01-25T09:44:23;102815.94;;;14.89;62.03
42105;BME280;70664;51.472;5.712;2024-01-25T09:46:50;102819.44;;;14.91;62.19
42105;BME280;70664;51.472;5.712;2024-01-25T09:49:17;102809.09;;;14.91;61.83
42105;BME280;70664;51.472;5.712;2024-01-25T09:51:44;102795.22;;;14.87;61.56
42105;BME280;70664;51.472;5.712;2024-01-25T09:54:10;102806.38;;;14.85;61.58
42105;BME280;70664;51.472;5.712;2024-01-25T09:56:36;102822.03;;;14.89;61.32
42105;BME280;70664;51.472;5.712;2024-01-25T09:59:03;102813.41;;;14.90;61.28
42105;BME280;70664;51.472;5.712;2024-01-25T10:01:30;102822.03;;;14.89;61.34
42105;BME280;70664;51.472;5.712;2024-01-25T10:03:56;102826.31;;;14.89;61.48
42105;BME280;70664;51.472;5.712;2024-01-25T10:06:22;102809.09;;;14.91;61.16
42105;BME280;70664;51.472;5.712;2024-01-25T10:08:49;102800.34;;;14.86;61.46
42105;BME280;70664;51.472;5.712;2024-01-25T10:11:15;102796.91;;;14.85;61.44
42105;BME280;70664;51.472;5.712;2024-01-25T10:13:45;102800.41;;;14.87;61.35
42105;BME280;70664;51.472;5.712;2024-01-25T10:16:16;102808.06;;;14.82;61.51
42105;BME280;70664;51.472;5.712;2024-01-25T10:18:44;102794.31;;;14.85;61.31
42105;BME280;70664;51.472;5.712;2024-01-25T10:21:12;102804.63;;;14.82;61.47
42105;BME280;70664;51.472;5.712;2024-01-25T10:23:39;102802.94;;;14.84;61.43
42105;BME280;70664;51.472;5.712;2024-01-25T10:26:08;102808.13;;;14.84;61.61
42105;BME280;70664;51.472;5.712;2024-01-25T10:28:33;102790.78;;;14.81;61.67
42105;BME280;70664;51.472;5.712;2024-01-25T10:31:01;102778.78;;;14.85;61.55
42105;BME280;70664;51.472;5.712;2024-01-25T10:33:30;102775.28;;;14.83;61.67
42105;BME280;70664;51.472;5.712;2024-01-25T10:35:57;102783.06;;;14.85;61.93
42105;BME280;70664;51.472;5.712;2024-01-25T10:38:39;102787.34;;;14.81;62.11
42105;BME280;70664;51.472;5.712;2024-01-25T10:41:07;102789.03;;;14.79;62.13
42105;BME280;70664;51.472;5.712;2024-01-25T10:43:32;102773.53;;;14.82;61.81
42105;BME280;70664;51.472;5.712;2024-01-25T10:46:01;102768.38;;;14.82;61.80
42105;BME280;70664;51.472;5.712;2024-01-25T10:48:28;102763.19;;;14.82;61.93
42105;BME280;70664;51.472;5.712;2024-01-25T10:50:55;102763.16;;;14.80;61.80
42105;BME280;70664;51.472;5.712;2024-01-25T10:53:23;102764.84;;;14.78;62.19
42105;BME280;70664;51.472;5.712;2024-01-25T10:55:50;102763.13;;;14.79;61.88
42105;BME280;70664;51.472;5.712;2024-01-25T10:58:17;102763.97;;;14.76;62.52
42105;BME280;70664;51.472;5.712;2024-01-25T11:00:54;102760.56;;;14.80;61.99
42105;BME280;70664;51.472;5.712;2024-01-25T11:03:26;102752.75;;;14.77;62.19
42105;BME280;70664;51.472;5.712;2024-01-25T11:05:55;102750.19;;;14.77;62.22
42105;BME280;70664;51.472;5.712;2024-01-25T11:08:21;102754.47;;;14.75;62.43
42105;BME280;70664;51.472;5.712;2024-01-25T11:10:52;102749.28;;;14.77;62.25
42105;BME280;70664;51.472;5.712;2024-01-25T11:13:25;102745.00;;;14.77;62.34
42105;BME280;70664;51.472;5.712;2024-01-25T11:15:51;102744.09;;;14.77;62.26
42105;BME280;70664;51.472;5.712;2024-01-25T11:18:18;102743.22;;;14.75;62.36
42105;BME280;70664;51.472;5.712;2024-01-25T11:20:47;102735.50;;;14.76;62.39
42105;BME280;70664;51.472;5.712;2024-01-25T11:23:16;102725.13;;;14.76;62.43
42105;BME280;70664;51.472;5.712;2024-01-25T11:25:45;102723.41;;;14.77;62.35
42105;BME280;70664;51.472;5.712;2024-01-25T11:28:14;102714.78;;;14.78;62.19
42105;BME280;70664;51.472;5.712;2024-01-25T11:30:42;102710.47;;;14.78;62.29
42105;BME280;70664;51.472;5.712;2024-01-25T11:33:08;102719.97;;;14.78;62.53
42105;BME280;70664;51.472;5.712;2024-01-25T11:35:35;102718.22;;;14.77;62.58
42105;BME280;70664;51.472;5.712;2024-01-25T11:38:01;102710.47;;;14.78;62.63
42105;BME280;70664;51.472;5.712;2024-01-25T11:40:27;102702.75;;;14.81;62.26
42105;BME280;70664;51.472;5.712;2024-01-25T11:42:57;102687.22;;;14.81;62.67
42105;BME280;70664;51.472;5.712;2024-01-25T11:45:23;102677.00;;;14.91;62.76
42105;BME280;70664;51.472;5.712;2024-01-25T11:47:50;102689.88;;;14.86;62.77
42105;BME280;70664;51.472;5.712;2024-01-25T11:50:16;102699.41;;;14.89;62.54
42105;BME280;70664;51.472;5.712;2024-01-25T11:52:41;102711.63;;;14.96;62.48
42105;BME280;70664;51.472;5.712;2024-01-25T11:55:09;102712.47;;;14.95;61.96
42105;BME280;70664;51.472;5.712;2024-01-25T11:57:40;102703.03;;;15.00;61.85
42105;BME280;70664;51.472;5.712;2024-01-25T12:00:12;102692.63;;;14.98;61.96
42105;BME280;70664;51.472;5.712;2024-01-25T12:02:39;102696.06;;;14.97;62.02
42105;BME280;70664;51.472;5.712;2024-01-25T12:05:06;102701.31;;;14.99;62.07
42105;BME280;70664;51.472;5.712;2024-01-25T12:07:32;102695.28;;;15.00;62.12
42105;BME280;70664;51.472;5.712;2024-01-25T12:10:17;102693.53;;;15.01;62.09
42105;BME280;70664;51.472;5.712;2024-01-25T12:12:43;102684.88;;;14.98;61.98
42105;BME280;70664;51.472;5.712;2024-01-25T12:15:09;102677.16;;;15.02;62.29
42105;BME280;70664;51.472;5.712;2024-01-25T12:17:35;102677.19;;;15.03;62.07
42105;BME280;70664;51.472;5.712;2024-01-25T12:20:07;102682.41;;;15.08;61.86
42105;BME280;70664;51.472;5.712;2024-01-25T12:22:37;102683.38;;;15.15;61.86
42105;BME280;70664;51.472;5.712;2024-01-25T12:25:07;102664.38;;;15.14;62.32
42105;BME280;70664;51.472;5.712;2024-01-25T12:27:35;102668.81;;;15.24;62.81
42105;BME280;70664;51.472;5.712;2024-01-25T12:30:01;102660.34;;;15.38;63.49
42105;BME280;70664;51.472;5.712;2024-01-25T12:32:26;102660.72;;;15.69;63.43
42105;BME280;70664;51.472;5.712;2024-01-25T12:34:57;102642.03;;;15.98;62.76
42105;BME280;70664;51.472;5.712;2024-01-25T12:37:23;102616.97;;;16.03;62.47
42105;BME280;70664;51.472;5.712;2024-01-25T12:39:51;102623.19;;;16.17;62.28
42105;BME280;70664;51.472;5.712;2024-01-25T12:42:18;102649.19;;;16.24;62.15
42105;BME280;70664;51.472;5.712;2024-01-25T12:44:44;102643.94;;;16.19;62.41
42105;BME280;70664;51.472;5.712;2024-01-25T12:47:11;102639.72;;;16.32;62.66
42105;BME280;70664;51.472;5.712;2024-01-25T12:49:44;102641.47;;;16.30;62.82